• Join FlightAware (Why Join?)
  • Login
  • US Flag 
02:49AM EDT


 

Airport Tracker/Info


-or-


 

Live Flight TrackerFlight Track Log ✈ SKW4677 ✈ 09-May-2013 ✈ KSLC - KGCC

Flight Track Log - Related Links

Times and Time Zones

All times are in EDT time to prevent confusion due to time zone crossing. See the SKW4677 flight status page for this flight to view local times or setup timezone preferences in your user account.

Time Position Orientation Groundspeed Altitude Reporting Facility
EDT Latitude Longitude Course Direction KTS MPH feet Rate Location/Type
01:14PM 40.7969 -111.9628 360° North 157 181 4,800  Level Salt Lake Center
01:14PM 40.8133 -111.9628 360° North 142 163 5,400 1,440 Climbing Salt Lake Center
01:15PM 40.8614 -111.9694 354° North 174 200 6,900 1,380 Climbing Salt Lake Center
01:16PM 40.9147 -111.9839 348° North 193 222 8,300 1,560 Climbing Salt Lake Center
01:17PM 40.9708 -111.9969 350° North 204 235 10,100 1,560 Climbing Salt Lake Center
01:18PM 40.9878 -111.9406 68° East 175 201 11,600 1,560 Climbing Salt Lake Center
01:19PM 40.9956 -111.8761 81° East 180 207 13,400 1,560 Climbing Salt Lake Center
01:21PM 40.9906 -111.7942 95° East 194 223 14,900 1,320 Climbing Salt Lake Center
01:22PM 40.9867 -111.7233 94° East 197 227 16,200 1,140 Climbing Salt Lake Center
01:23PM 40.9831 -111.6475 94° East 207 238 17,300 840 Climbing Salt Lake Center
01:24PM 40.9800 -111.5694 93° East 213 245 18,000 300 Climbing Salt Lake Center
01:25PM 40.9761 -111.4817 93° East 241 277 18,000  Level Salt Lake Center
01:26PM 41.0011 -111.3950 69° East 255 293 18,000  Level Salt Lake Center
01:27PM 41.0328 -111.2894 68° East 260 299 18,000 60 Level Salt Lake Center
01:28PM 41.0558 -111.1986 71° East 260 299 18,200 480 Climbing Salt Lake Center
01:29PM 41.0783 -111.1142 71° East 247 284 19,100 900 Climbing Salt Lake Center
01:30PM 41.0981 -111.0333 72° East 235 270 20,100 840 Climbing Salt Lake Center
01:31PM 41.1183 -110.9536 71° East 229 264 20,900 780 Climbing Salt Lake Center
01:32PM 41.1403 -110.8647 72° East 230 265 21,800 720 Climbing Salt Lake Center
01:33PM 41.1600 -110.7883 71° East 230 265 22,400 600 Climbing Salt Lake Center
01:34PM 41.1833 -110.6958 71° East 236 272 23,100 660 Climbing Salt Lake Center
01:35PM 41.2028 -110.6164 72° East 237 273 23,800 600 Climbing Salt Lake Center
01:36PM 41.2269 -110.5242 71° East 236 272 24,400 480 Climbing Salt Lake Center
01:37PM 41.2461 -110.4453 72° East 235 270 24,900 240 Climbing Salt Lake Center
01:38PM 41.2664 -110.3636 72° East 241 277 25,000  Climbing Salt Lake Center
01:39PM 41.2906 -110.2633 72° East 255 293 25,000  Level Salt Lake Center
01:40PM 41.3131 -110.1764 71° East 260 299 25,000  Level Salt Lake Center
01:41PM 41.3372 -110.0750 72° East 259 298 25,000  Level Salt Lake Center
01:42PM 41.3581 -109.9881 72° East 257 296 25,000  Level Salt Lake Center
01:43PM 41.3831 -109.8858 72° East 259 298 25,000  Level Salt Lake Center
01:44PM 41.4050 -109.7983 71° East 261 300 25,000  Level Salt Lake Center
01:45PM 41.4294 -109.6956 72° East 262 302 25,000  Level Salt Lake Center
01:46PM 41.4506 -109.6072 72° East 261 300 25,000  Level Salt Lake Center
01:47PM 41.4756 -109.5056 72° East 259 298 25,000  Level Salt Lake Center
01:48PM 41.4975 -109.4142 72° East 264 304 25,000  Level Salt Lake Center
01:49PM 41.5183 -109.3261 72° East 264 304 25,000  Level Salt Lake Center
01:50PM 41.5442 -109.2211 72° East 264 304 25,000  Level Salt Lake Center
01:51PM 41.5644 -109.1292 74° East 265 305 25,000  Level Salt Lake Center
01:52PM 41.5908 -109.0236 71° East 265 305 25,000  Level Salt Lake Center
01:53PM 41.6456 -108.9644 39° Northeast 265 305 25,000  Level Salt Lake Center
01:55PM 41.6997 -108.9053 39° Northeast 263 303 25,000  Level Salt Lake Center
01:56PM 41.7656 -108.8381 37° Northeast 266 306 25,000  Level Salt Lake Center
01:57PM 41.8222 -108.7794 38° Northeast 267 307 25,000  Level Salt Lake Center
01:58PM 41.8883 -108.7119 37° Northeast 267 307 25,000  Level Salt Lake Center
01:59PM 41.9456 -108.6542 37° Northeast 270 311 25,000  Level Salt Lake Center
02:00PM 42.0117 -108.5869 37° Northeast 268 308 25,000  Level Salt Lake Center
02:01PM 42.0667 -108.5292 38° Northeast 264 304 25,000  Level Salt Lake Center
02:02PM 42.1317 -108.4633 37° Northeast 262 302 25,000  Level Salt Lake Center
02:03PM 42.1844 -108.4025 40° Northeast 262 302 25,000  Level Salt Lake Center
02:04PM 42.2489 -108.3347 38° Northeast 263 303 25,000  Level Salt Lake Center
02:05PM 42.3044 -108.2772 37° Northeast 263 303 25,000  Level Salt Lake Center
02:06PM 42.3678 -108.2086 39° Northeast 262 302 25,000  Level Salt Lake Center
02:07PM 42.4242 -108.1553 35° Northeast 262 302 25,000  Level Salt Lake Center
02:08PM 42.4783 -108.0939 40° Northeast 266 306 25,000  Level Salt Lake Center
02:09PM 42.5447 -108.0267 37° Northeast 268 308 25,000  Level Salt Lake Center
02:10PM 42.6000 -107.9669 38° Northeast 267 307 25,000  Level Salt Lake Center
02:11PM 42.6653 -107.8983 38° Northeast 269 310 25,000  Level Salt Lake Center
02:12PM 42.7217 -107.8383 38° Northeast 269 310 25,000  Level Salt Lake Center
02:13PM 42.7861 -107.7686 38° Northeast 269 310 25,000  Level Salt Lake Center
02:14PM 42.8428 -107.7081 38° Northeast 271 312 25,000  Level Salt Lake Center
02:15PM 42.9078 -107.6397 38° Northeast 268 308 25,000  Level Salt Lake Center
02:16PM 42.9442 -107.5978 40° Northeast 266 306 25,000  Level Denver Center
02:17PM 43.0036 -107.5339 38° Northeast 267 307 25,000  Level Denver Center
02:18PM 43.0592 -107.4750 38° Northeast 265 305 25,000  Level Denver Center
02:19PM 43.1242 -107.4044 38° Northeast 267 307 25,000  Level Denver Center
02:19PM 43.1417 -107.3856 38° Northeast 266 306 25,000  Level Salt Lake Center
02:20PM 43.1797 -107.3436 39° Northeast 269 310 25,000  Level Denver Center
02:21PM 43.2436 -107.2742 38° Northeast 264 304 25,000  Level Denver Center
02:22PM 43.2989 -107.2136 39° Northeast 266 306 25,000  Level Denver Center
02:23PM 43.3722 -107.1339 38° Northeast 264 304 25,000  Level Denver Center
02:24PM 43.4267 -107.0731 39° Northeast 265 305 25,000 -600 Level Denver Center
02:25PM 43.4939 -106.9992 39° Northeast 277 319 23,800 -1,140 Descending Denver Center
02:26PM 43.5561 -106.9300 39° Northeast 295 339 22,700 -1,080 Descending Denver Center
02:27PM 43.6219 -106.8411 44° Northeast 298 343 21,600 -1,260 Descending Denver Center
02:28PM 43.6703 -106.7533 53° Northeast 300 345 20,200 -1,440 Descending Denver Center
02:30PM 43.7364 -106.6392 51° Northeast 300 345 18,500 -1,200 Descending Salt Lake Center
02:30PM 43.7767 -106.5664 53° Northeast 299 344 17,800 -1,020 Descending Denver Center
02:31PM 43.8247 -106.4842 51° Northeast 295 339 16,600 -1,320 Descending Denver Center
02:33PM 43.8786 -106.3858 53° Northeast 291 335 15,100 -1,140 Descending Denver Center
02:34PM 43.9183 -106.3183 51° Northeast 288 331 14,300 -1,140 Descending Denver Center
02:35PM 43.9794 -106.2097 52° Northeast 284 327 12,800 -1,260 Descending Denver Center
02:36PM 44.0239 -106.1281 53° Northeast 281 323 11,800 -900 Descending Denver Center
02:37PM 44.0756 -106.0356 52° Northeast 277 319 11,000 -420 Descending Denver Center
02:38PM 44.1181 -105.9592 52° Northeast 272 313 11,000  Level Denver Center
02:39PM 44.1614 -105.8808 52° Northeast 256 295 11,000  Level Denver Center
02:40PM 44.1989 -105.8158 51° Northeast 244 281 11,000 -360 Level Denver Center
02:41PM 44.2406 -105.7397 53° Northeast 232 267 10,300 -900 Descending Denver Center
02:42PM 44.2642 -105.6642 66° East 235 270 9,200 -1,140 Descending Denver Center
02:44PM 44.3321 -105.5359 55° Northeast  Level FlightAware Approximate
02:51PM 44.3333 -105.5333 North  Level FlightAware Approximate